WetterOnline ( https://www.wetteronline.de )

Wetter aktuell Bohumín

Aktuelles Wetter: Ostrava (260m)

6-stündlich | Neueste Meldungen
Ortszeit Temperatur Wetter
Di, 28.01. 7:00 0.8° C wolkig
Di, 28.01. 1:00 -1.6° C bedeckt
Mo, 27.01. 19:00 -0.3° C bedeckt
Mo, 27.01. 13:00 0.1° C bedeckt
Mo, 27.01. 7:00 -1.3° C bedeckt
Mo, 27.01. 1:00 -1.2° C bedeckt
So, 26.01. 19:00 -0.9° C bedeckt
So, 26.01. 13:00 -0.9° C bedeckt
Ortszeit Temperatur Wetter
Di, 28.01. 12:30 4° C leicht bewölkt
Di, 28.01. 12:00 4.2° C bedeckt
Di, 28.01. 11:30 3° C leicht bewölkt
Di, 28.01. 11:00 3.9° C bedeckt
Di, 28.01. 10:30 3° C leichter Regen
Di, 28.01. 10:00 1.3° C bedeckt
Di, 28.01. 9:30 1° C leicht bewölkt
Di, 28.01. 9:00 1.0° C bedeckt
Ortszeit Relative Feuchte Sichtweite
Di, 28.01. 7:00 94% 12 km
Di, 28.01. 1:00 100% 2.5 km
Mo, 27.01. 19:00 99% 2.0 km
Mo, 27.01. 13:00 92% 5.0 km
Mo, 27.01. 7:00 94% 6 km
Mo, 27.01. 1:00 97% 5.0 km
So, 26.01. 19:00 94% 8 km
So, 26.01. 13:00 86% 7 km
Ortszeit Relative Feuchte Sichtweite
Di, 28.01. 12:30 81% >10 km
Di, 28.01. 12:00 77% 12 km
Di, 28.01. 11:30 81% >10 km
Di, 28.01. 11:00 83% 11 km
Di, 28.01. 10:30 81% >10 km
Di, 28.01. 10:00 93% 8 km
Di, 28.01. 9:30 93% 7 km
Di, 28.01. 9:00 94% 7 km
Ortszeit Niederschlagsmenge Niederschlagsart
Di, 28.01. 7:00 0.0 l/m2 in 12 Std. -
Di, 28.01. 1:00 0.0 l/m2 in 6 Std. Nebel
Mo, 27.01. 19:00 0.0 l/m2 in 12 Std. -
Mo, 27.01. 13:00 0.0 l/m2 in 6 Std. -
Mo, 27.01. 7:00 0.0 l/m2 in 12 Std. -
Mo, 27.01. 1:00 0.0 l/m2 in 6 Std. -
So, 26.01. 19:00 0.0 l/m2 in 12 Std. -
So, 26.01. 13:00 0.0 l/m2 in 6 Std. -
Ortszeit Niederschlagsmenge Niederschlagsart
Di, 28.01. 12:30 keine Meldung -
Di, 28.01. 12:00 0.0 l/m2 in 1 Std. -
Di, 28.01. 11:30 keine Meldung -
Di, 28.01. 11:00 0.0 l/m2 in 1 Std. -
Di, 28.01. 10:30 keine Meldung -
Di, 28.01. 10:00 0.0 l/m2 in 1 Std. -
Di, 28.01. 9:30 keine Meldung -
Di, 28.01. 9:00 0.0 l/m2 in 1 Std. -
Ortszeit Stärke Spitze Richtung
km/h Bft. km/h Grad Sektor
Di, 28.01. 7:00 25 4 40 240° SW
Di, 28.01. 1:00 11 2 - 240° SW
Mo, 27.01. 19:00 18 3 40 230° SW
Mo, 27.01. 13:00 32 5 40 230° SW
Mo, 27.01. 7:00 29 5 43 230° SW
Mo, 27.01. 1:00 32 5 43 230° SW
So, 26.01. 19:00 29 5 43 230° SW
So, 26.01. 13:00 36 5 47 240° SW
Ortszeit Stärke Spitze Richtung
km/h Bft. km/h Grad Sektor
Di, 28.01. 12:30 24 4 - 240° SW
Di, 28.01. 12:00 22 4 43 250° W
Di, 28.01. 11:30 30 5 - 230° SW
Di, 28.01. 11:00 22 4 - 250° W
Di, 28.01. 10:30 22 4 - 220° SW
Di, 28.01. 10:00 25 4 43 230° SW
Di, 28.01. 9:30 22 4 - 250° W
Di, 28.01. 9:00 22 4 - 250° W
Ortszeit Untergrenze Bedeckung Gattung
total tief tief mittel hoch
Di, 28.01. 7:00 1800 m 8/8 8/8 - Ac -
Di, 28.01. 1:00 60 m 8/8 8/8 St - -
Mo, 27.01. 19:00 90 m 8/8 8/8 St - -
Mo, 27.01. 13:00 150 m 8/8 8/8 St - -
Mo, 27.01. 7:00 180 m 8/8 8/8 St - -
Mo, 27.01. 1:00 120 m 8/8 8/8 St - -
So, 26.01. 19:00 180 m 8/8 8/8 St - -
So, 26.01. 13:00 300 m 8/8 8/8 St - -
Ortszeit Bedeckungsgrad in Achtel und Wolkenuntergrenze
Di, 28.01. 12:30 1-2(630m)
Di, 28.01. 12:00 2(600m) 8(1500m)
Di, 28.01. 11:30 1-2(570m)
Di, 28.01. 11:00 8(1290m)
Di, 28.01. 10:30 1-2(540m) 8(1380m)
Di, 28.01. 10:00 8(1290m)
Di, 28.01. 9:30 3-4(600m)
Di, 28.01. 9:00 4(600m) 8(1500m)
Ortszeit Luftdruck NN (hPa) Tendenz (hPa in 3 Std.)
Di, 28.01. 7:00 1006 - 1,9
Di, 28.01. 1:00 1011 - 3,1
Mo, 27.01. 19:00 1016 - 1,1
Mo, 27.01. 13:00 1018 - 1,2
Mo, 27.01. 7:00 1020 - 0,3
Mo, 27.01. 1:00 1021 - 0,6
So, 26.01. 19:00 1022 0,0
So, 26.01. 13:00 1022 - 1,2
Ortszeit Luftdruck NN (hPa) Tendenz (hPa in 3 Std.)
Di, 28.01. 12:30 1001 keine Meldung
Di, 28.01. 12:00 1003 - 1,3
Di, 28.01. 11:30 1002 keine Meldung
Di, 28.01. 11:00 1005 - 0,4
Di, 28.01. 10:30 1003 keine Meldung
Di, 28.01. 10:00 1006 0,0
Di, 28.01. 9:30 1004 keine Meldung
Di, 28.01. 9:00 1005 - 1,3
Ortszeit Schneehöhe (cm)
Di, 28.01. 7:00 -
Di, 28.01. 1:00 -
Mo, 27.01. 19:00 -
Mo, 27.01. 13:00 -
Mo, 27.01. 7:00 0
Mo, 27.01. 1:00 -
So, 26.01. 19:00 0
So, 26.01. 13:00 -
Ortszeit Schneehöhe (cm)
Di, 28.01. 12:30 -
Di, 28.01. 12:00 -
Di, 28.01. 11:30 -
Di, 28.01. 11:00 -
Di, 28.01. 10:30 -
Di, 28.01. 10:00 -
Di, 28.01. 9:30 -
Di, 28.01. 9:00 -
Link zu dieser Seite / Seite empfehlen

Das Wetter in ...